sensor_id;sensor_type;location;lat;lon;timestamp;temperature;humidity
56478;DHT22;42382;53.210;5.772;2023-06-10T00:01:44;17.40;69.20
56478;DHT22;42382;53.210;5.772;2023-06-10T00:04:16;17.40;69.10
56478;DHT22;42382;53.210;5.772;2023-06-10T00:06:43;17.30;69.00
56478;DHT22;42382;53.210;5.772;2023-06-10T00:09:09;17.30;69.00
56478;DHT22;42382;53.210;5.772;2023-06-10T00:11:38;17.30;68.90
56478;DHT22;42382;53.210;5.772;2023-06-10T00:14:04;17.40;68.90
56478;DHT22;42382;53.210;5.772;2023-06-10T00:16:30;17.30;68.90
56478;DHT22;42382;53.210;5.772;2023-06-10T00:18:56;17.30;68.90
56478;DHT22;42382;53.210;5.772;2023-06-10T00:21:26;17.30;68.90
56478;DHT22;42382;53.210;5.772;2023-06-10T00:23:52;17.20;68.90
56478;DHT22;42382;53.210;5.772;2023-06-10T00:26:18;17.30;68.90
56478;DHT22;42382;53.210;5.772;2023-06-10T00:28:43;17.20;68.80
56478;DHT22;42382;53.210;5.772;2023-06-10T00:31:10;17.20;68.80
56478;DHT22;42382;53.210;5.772;2023-06-10T00:33:36;17.10;68.80
56478;DHT22;42382;53.210;5.772;2023-06-10T00:36:02;17.10;68.80
56478;DHT22;42382;53.210;5.772;2023-06-10T00:38:27;17.10;68.70
56478;DHT22;42382;53.210;5.772;2023-06-10T00:40:53;17.10;68.70
56478;DHT22;42382;53.210;5.772;2023-06-10T00:43:18;17.10;68.70
56478;DHT22;42382;53.210;5.772;2023-06-10T00:45:44;17.10;68.70
56478;DHT22;42382;53.210;5.772;2023-06-10T00:48:10;17.10;68.80
56478;DHT22;42382;53.210;5.772;2023-06-10T00:50:35;17.10;68.70
56478;DHT22;42382;53.210;5.772;2023-06-10T00:53:05;17.10;68.70
56478;DHT22;42382;53.210;5.772;2023-06-10T00:55:35;17.00;68.80
56478;DHT22;42382;53.210;5.772;2023-06-10T00:58:01;17.00;68.80
56478;DHT22;42382;53.210;5.772;2023-06-10T01:00:27;17.00;68.80
56478;DHT22;42382;53.210;5.772;2023-06-10T01:02:53;16.90;68.80
56478;DHT22;42382;53.210;5.772;2023-06-10T01:05:19;16.90;69.00
56478;DHT22;42382;53.210;5.772;2023-06-10T01:13:18;16.90;69.00
56478;DHT22;42382;53.210;5.772;2023-06-10T01:15:50;16.80;69.00
56478;DHT22;42382;53.210;5.772;2023-06-10T01:18:17;16.80;69.10
56478;DHT22;42382;53.210;5.772;2023-06-10T01:20:43;16.80;69.00
56478;DHT22;42382;53.210;5.772;2023-06-10T01:23:10;16.80;69.10
56478;DHT22;42382;53.210;5.772;2023-06-10T01:25:39;16.70;69.00
56478;DHT22;42382;53.210;5.772;2023-06-10T01:28:19;16.70;69.00
56478;DHT22;42382;53.210;5.772;2023-06-10T01:33:15;16.70;69.00
56478;DHT22;42382;53.210;5.772;2023-06-10T01:35:43;16.70;69.00
56478;DHT22;42382;53.210;5.772;2023-06-10T01:38:10;16.60;69.00
56478;DHT22;42382;53.210;5.772;2023-06-10T01:40:38;16.60;68.90
56478;DHT22;42382;53.210;5.772;2023-06-10T01:43:04;16.60;68.90
56478;DHT22;42382;53.210;5.772;2023-06-10T01:45:30;16.60;69.00
56478;DHT22;42382;53.210;5.772;2023-06-10T01:47:56;16.60;69.00
56478;DHT22;42382;53.210;5.772;2023-06-10T01:50:21;16.50;69.00
56478;DHT22;42382;53.210;5.772;2023-06-10T01:52:47;16.50;69.00
56478;DHT22;42382;53.210;5.772;2023-06-10T01:55:13;16.40;69.10
56478;DHT22;42382;53.210;5.772;2023-06-10T01:57:38;16.40;69.10
56478;DHT22;42382;53.210;5.772;2023-06-10T02:00:04;16.40;69.10
56478;DHT22;42382;53.210;5.772;2023-06-10T02:02:30;16.40;69.20
56478;DHT22;42382;53.210;5.772;2023-06-10T02:04:56;16.30;69.10
56478;DHT22;42382;53.210;5.772;2023-06-10T02:07:22;16.40;69.10
56478;DHT22;42382;53.210;5.772;2023-06-10T02:09:48;16.30;69.10
56478;DHT22;42382;53.210;5.772;2023-06-10T02:12:13;16.30;69.20
56478;DHT22;42382;53.210;5.772;2023-06-10T02:14:39;16.30;69.30
56478;DHT22;42382;53.210;5.772;2023-06-10T02:17:05;16.30;69.40
56478;DHT22;42382;53.210;5.772;2023-06-10T02:19:30;16.20;69.40
56478;DHT22;42382;53.210;5.772;2023-06-10T02:21:56;16.20;69.40
56478;DHT22;42382;53.210;5.772;2023-06-10T02:24:22;16.20;69.40
56478;DHT22;42382;53.210;5.772;2023-06-10T02:26:47;16.10;69.50
56478;DHT22;42382;53.210;5.772;2023-06-10T02:29:13;16.10;69.50
56478;DHT22;42382;53.210;5.772;2023-06-10T02:31:39;16.00;69.60
56478;DHT22;42382;53.210;5.772;2023-06-10T02:34:05;16.00;69.60
56478;DHT22;42382;53.210;5.772;2023-06-10T02:36:30;15.90;69.70
56478;DHT22;42382;53.210;5.772;2023-06-10T02:38:56;15.90;69.80
56478;DHT22;42382;53.210;5.772;2023-06-10T02:41:22;15.90;70.00
56478;DHT22;42382;53.210;5.772;2023-06-10T02:43:48;15.90;70.10
56478;DHT22;42382;53.210;5.772;2023-06-10T02:46:14;15.80;70.20
56478;DHT22;42382;53.210;5.772;2023-06-10T02:48:43;15.80;70.20
56478;DHT22;42382;53.210;5.772;2023-06-10T02:51:10;15.70;70.30
56478;DHT22;42382;53.210;5.772;2023-06-10T02:53:36;15.70;70.40
56478;DHT22;42382;53.210;5.772;2023-06-10T02:58:27;15.70;70.60
56478;DHT22;42382;53.210;5.772;2023-06-10T03:00:53;15.60;70.60
56478;DHT22;42382;53.210;5.772;2023-06-10T03:03:19;15.60;70.70
56478;DHT22;42382;53.210;5.772;2023-06-10T03:05:45;15.50;70.80
56478;DHT22;42382;53.210;5.772;2023-06-10T03:08:11;15.50;71.00
56478;DHT22;42382;53.210;5.772;2023-06-10T03:10:36;15.40;71.00
56478;DHT22;42382;53.210;5.772;2023-06-10T03:13:02;15.40;71.10
56478;DHT22;42382;53.210;5.772;2023-06-10T03:15:27;15.40;71.20
56478;DHT22;42382;53.210;5.772;2023-06-10T03:17:54;15.40;71.30
56478;DHT22;42382;53.210;5.772;2023-06-10T03:20:21;15.40;71.60
56478;DHT22;42382;53.210;5.772;2023-06-10T03:22:47;15.30;71.60
56478;DHT22;42382;53.210;5.772;2023-06-10T03:25:13;15.30;71.70
56478;DHT22;42382;53.210;5.772;2023-06-10T03:27:41;15.30;71.70
56478;DHT22;42382;53.210;5.772;2023-06-10T03:30:07;15.30;71.80
56478;DHT22;42382;53.210;5.772;2023-06-10T03:32:34;15.20;71.90
56478;DHT22;42382;53.210;5.772;2023-06-10T03:35:01;15.30;72.00
56478;DHT22;42382;53.210;5.772;2023-06-10T03:37:26;15.20;72.10
56478;DHT22;42382;53.210;5.772;2023-06-10T03:39:52;15.30;72.30
56478;DHT22;42382;53.210;5.772;2023-06-10T03:42:17;15.20;72.40
56478;DHT22;42382;53.210;5.772;2023-06-10T03:44:43;15.20;72.50
56478;DHT22;42382;53.210;5.772;2023-06-10T03:47:09;15.10;72.80
56478;DHT22;42382;53.210;5.772;2023-06-10T03:49:34;15.10;72.70
56478;DHT22;42382;53.210;5.772;2023-06-10T03:52:02;15.10;72.80
56478;DHT22;42382;53.210;5.772;2023-06-10T03:54:27;15.10;72.90
56478;DHT22;42382;53.210;5.772;2023-06-10T03:56:53;15.10;72.90
56478;DHT22;42382;53.210;5.772;2023-06-10T03:59:18;15.10;73.20
56478;DHT22;42382;53.210;5.772;2023-06-10T04:01:44;15.10;73.20
56478;DHT22;42382;53.210;5.772;2023-06-10T04:04:13;15.10;73.40
56478;DHT22;42382;53.210;5.772;2023-06-10T04:06:40;15.10;73.40
56478;DHT22;42382;53.210;5.772;2023-06-10T04:09:06;15.10;73.40
56478;DHT22;42382;53.210;5.772;2023-06-10T04:11:33;15.10;73.70
56478;DHT22;42382;53.210;5.772;2023-06-10T04:13:58;15.10;74.00
56478;DHT22;42382;53.210;5.772;2023-06-10T04:16:24;15.00;73.80
56478;DHT22;42382;53.210;5.772;2023-06-10T04:18:50;15.00;74.00
56478;DHT22;42382;53.210;5.772;2023-06-10T04:21:16;15.00;74.10
56478;DHT22;42382;53.210;5.772;2023-06-10T04:23:41;15.00;74.30
56478;DHT22;42382;53.210;5.772;2023-06-10T04:26:07;15.00;74.20
56478;DHT22;42382;53.210;5.772;2023-06-10T04:28:33;15.00;74.50
56478;DHT22;42382;53.210;5.772;2023-06-10T04:30:58;15.00;74.50
56478;DHT22;42382;53.210;5.772;2023-06-10T04:33:24;15.00;74.50
56478;DHT22;42382;53.210;5.772;2023-06-10T04:35:50;15.00;74.70
56478;DHT22;42382;53.210;5.772;2023-06-10T04:38:16;15.00;74.90
56478;DHT22;42382;53.210;5.772;2023-06-10T04:40:42;15.00;75.00
56478;DHT22;42382;53.210;5.772;2023-06-10T04:43:07;15.00;74.80
56478;DHT22;42382;53.210;5.772;2023-06-10T04:45:33;15.00;75.20
56478;DHT22;42382;53.210;5.772;2023-06-10T04:47:58;15.10;75.00
56478;DHT22;42382;53.210;5.772;2023-06-10T04:50:24;15.00;75.40
56478;DHT22;42382;53.210;5.772;2023-06-10T04:52:50;15.10;75.60
56478;DHT22;42382;53.210;5.772;2023-06-10T04:55:16;15.10;75.70
56478;DHT22;42382;53.210;5.772;2023-06-10T04:57:41;15.10;76.00
56478;DHT22;42382;53.210;5.772;2023-06-10T05:00:07;15.20;76.10
56478;DHT22;42382;53.210;5.772;2023-06-10T05:02:34;15.20;76.20
56478;DHT22;42382;53.210;5.772;2023-06-10T05:04:59;15.20;76.50
56478;DHT22;42382;53.210;5.772;2023-06-10T05:07:25;15.30;76.40
56478;DHT22;42382;53.210;5.772;2023-06-10T05:09:51;15.30;76.80
56478;DHT22;42382;53.210;5.772;2023-06-10T05:12:17;15.30;77.10
56478;DHT22;42382;53.210;5.772;2023-06-10T05:14:42;15.30;76.70
56478;DHT22;42382;53.210;5.772;2023-06-10T05:17:08;15.30;76.50
56478;DHT22;42382;53.210;5.772;2023-06-10T05:19:33;15.40;76.90
56478;DHT22;42382;53.210;5.772;2023-06-10T05:24:28;15.40;77.40
56478;DHT22;42382;53.210;5.772;2023-06-10T05:26:53;15.50;77.00
56478;DHT22;42382;53.210;5.772;2023-06-10T05:29:19;15.40;77.50
56478;DHT22;42382;53.210;5.772;2023-06-10T05:31:45;15.50;76.90
56478;DHT22;42382;53.210;5.772;2023-06-10T05:34:10;15.50;77.00
56478;DHT22;42382;53.210;5.772;2023-06-10T05:36:36;15.60;76.80
56478;DHT22;42382;53.210;5.772;2023-06-10T05:39:02;15.60;77.30
56478;DHT22;42382;53.210;5.772;2023-06-10T05:41:28;15.70;77.10
56478;DHT22;42382;53.210;5.772;2023-06-10T05:43:53;15.70;77.30
56478;DHT22;42382;53.210;5.772;2023-06-10T05:46:20;15.70;77.20
56478;DHT22;42382;53.210;5.772;2023-06-10T05:48:45;15.70;77.00
56478;DHT22;42382;53.210;5.772;2023-06-10T05:53:37;15.80;77.00
56478;DHT22;42382;53.210;5.772;2023-06-10T05:56:03;15.80;76.60
56478;DHT22;42382;53.210;5.772;2023-06-10T05:58:29;15.90;76.60
56478;DHT22;42382;53.210;5.772;2023-06-10T06:00:55;15.90;76.50
56478;DHT22;42382;53.210;5.772;2023-06-10T06:03:21;15.90;76.80
56478;DHT22;42382;53.210;5.772;2023-06-10T06:05:46;16.00;76.40
56478;DHT22;42382;53.210;5.772;2023-06-10T06:08:12;16.00;76.30
56478;DHT22;42382;53.210;5.772;2023-06-10T06:10:39;16.10;76.50
56478;DHT22;42382;53.210;5.772;2023-06-10T06:13:04;16.10;76.50
56478;DHT22;42382;53.210;5.772;2023-06-10T06:15:30;16.10;76.20
56478;DHT22;42382;53.210;5.772;2023-06-10T06:17:56;16.20;76.40
56478;DHT22;42382;53.210;5.772;2023-06-10T06:20:22;16.20;76.30
56478;DHT22;42382;53.210;5.772;2023-06-10T06:22:48;16.30;76.30
56478;DHT22;42382;53.210;5.772;2023-06-10T06:25:14;16.30;76.10
56478;DHT22;42382;53.210;5.772;2023-06-10T06:27:40;16.30;76.10
56478;DHT22;42382;53.210;5.772;2023-06-10T06:30:06;16.30;76.10
56478;DHT22;42382;53.210;5.772;2023-06-10T06:32:32;16.40;76.50
56478;DHT22;42382;53.210;5.772;2023-06-10T06:34:58;16.40;76.50
56478;DHT22;42382;53.210;5.772;2023-06-10T06:37:24;16.50;76.30
56478;DHT22;42382;53.210;5.772;2023-06-10T06:39:51;16.50;76.80
56478;DHT22;42382;53.210;5.772;2023-06-10T06:42:16;16.60;76.20
56478;DHT22;42382;53.210;5.772;2023-06-10T06:47:08;16.70;76.40
56478;DHT22;42382;53.210;5.772;2023-06-10T06:49:34;16.90;77.40
56478;DHT22;42382;53.210;5.772;2023-06-10T06:52:00;17.60;77.30
56478;DHT22;42382;53.210;5.772;2023-06-10T06:54:26;18.80;75.40
56478;DHT22;42382;53.210;5.772;2023-06-10T06:56:51;20.00;73.30
56478;DHT22;42382;53.210;5.772;2023-06-10T06:59:17;21.00;69.60
56478;DHT22;42382;53.210;5.772;2023-06-10T07:01:45;21.90;67.20
56478;DHT22;42382;53.210;5.772;2023-06-10T07:04:11;22.70;64.80
56478;DHT22;42382;53.210;5.772;2023-06-10T07:06:36;23.40;61.80
56478;DHT22;42382;53.210;5.772;2023-06-10T07:09:04;24.00;60.10
56478;DHT22;42382;53.210;5.772;2023-06-10T07:11:30;24.50;57.80
56478;DHT22;42382;53.210;5.772;2023-06-10T07:13:56;24.90;56.20
56478;DHT22;42382;53.210;5.772;2023-06-10T07:16:21;25.40;55.20
56478;DHT22;42382;53.210;5.772;2023-06-10T07:18:47;25.90;53.90
56478;DHT22;42382;53.210;5.772;2023-06-10T07:21:13;26.10;51.90
56478;DHT22;42382;53.210;5.772;2023-06-10T07:23:42;26.40;51.40
56478;DHT22;42382;53.210;5.772;2023-06-10T07:26:08;26.60;50.80
56478;DHT22;42382;53.210;5.772;2023-06-10T07:28:36;26.80;49.20
56478;DHT22;42382;53.210;5.772;2023-06-10T07:31:02;27.00;48.60
56478;DHT22;42382;53.210;5.772;2023-06-10T07:33:28;27.40;48.10
56478;DHT22;42382;53.210;5.772;2023-06-10T07:35:54;27.60;47.30
56478;DHT22;42382;53.210;5.772;2023-06-10T07:38:19;27.80;46.60
56478;DHT22;42382;53.210;5.772;2023-06-10T07:40:45;28.00;45.30
56478;DHT22;42382;53.210;5.772;2023-06-10T07:43:11;28.00;44.90
56478;DHT22;42382;53.210;5.772;2023-06-10T07:45:37;28.30;44.50
56478;DHT22;42382;53.210;5.772;2023-06-10T07:48:04;28.60;43.80
56478;DHT22;42382;53.210;5.772;2023-06-10T07:50:30;28.90;43.80
56478;DHT22;42382;53.210;5.772;2023-06-10T07:52:55;29.30;43.30
56478;DHT22;42382;53.210;5.772;2023-06-10T07:55:21;29.50;42.60
56478;DHT22;42382;53.210;5.772;2023-06-10T07:57:46;29.80;42.10
56478;DHT22;42382;53.210;5.772;2023-06-10T08:00:12;30.10;41.30
56478;DHT22;42382;53.210;5.772;2023-06-10T08:02:38;30.40;40.30
56478;DHT22;42382;53.210;5.772;2023-06-10T08:05:08;30.60;39.50
56478;DHT22;42382;53.210;5.772;2023-06-10T08:07:33;30.60;39.60
56478;DHT22;42382;53.210;5.772;2023-06-10T08:09:59;30.70;39.20
56478;DHT22;42382;53.210;5.772;2023-06-10T08:12:25;30.70;39.10
56478;DHT22;42382;53.210;5.772;2023-06-10T08:14:50;30.50;39.40
56478;DHT22;42382;53.210;5.772;2023-06-10T08:17:16;30.50;39.20
56478;DHT22;42382;53.210;5.772;2023-06-10T08:19:41;30.40;38.50
56478;DHT22;42382;53.210;5.772;2023-06-10T08:22:07;30.40;38.60
56478;DHT22;42382;53.210;5.772;2023-06-10T08:24:33;30.60;38.10
56478;DHT22;42382;53.210;5.772;2023-06-10T08:26:58;30.60;38.00
56478;DHT22;42382;53.210;5.772;2023-06-10T08:29:25;30.40;37.80
56478;DHT22;42382;53.210;5.772;2023-06-10T08:31:51;30.10;37.60
56478;DHT22;42382;53.210;5.772;2023-06-10T08:34:16;30.00;37.50
56478;DHT22;42382;53.210;5.772;2023-06-10T08:36:43;29.90;37.30
56478;DHT22;42382;53.210;5.772;2023-06-10T08:39:09;30.00;37.00
56478;DHT22;42382;53.210;5.772;2023-06-10T08:41:39;30.10;37.00
56478;DHT22;42382;53.210;5.772;2023-06-10T08:44:22;30.20;37.30
56478;DHT22;42382;53.210;5.772;2023-06-10T08:46:51;30.10;35.90
56478;DHT22;42382;53.210;5.772;2023-06-10T08:49:22;30.10;35.50
56478;DHT22;42382;53.210;5.772;2023-06-10T08:51:50;30.20;35.90
56478;DHT22;42382;53.210;5.772;2023-06-10T08:54:22;30.40;36.30
56478;DHT22;42382;53.210;5.772;2023-06-10T08:56:50;30.40;36.20
56478;DHT22;42382;53.210;5.772;2023-06-10T08:59:17;30.50;36.40
56478;DHT22;42382;53.210;5.772;2023-06-10T09:01:43;30.50;37.20
56478;DHT22;42382;53.210;5.772;2023-06-10T09:04:10;30.50;37.30
56478;DHT22;42382;53.210;5.772;2023-06-10T09:06:36;30.60;37.20
56478;DHT22;42382;53.210;5.772;2023-06-10T09:09:05;30.80;36.40
56478;DHT22;42382;53.210;5.772;2023-06-10T09:11:31;30.80;35.90
56478;DHT22;42382;53.210;5.772;2023-06-10T09:13:57;30.80;35.00
56478;DHT22;42382;53.210;5.772;2023-06-10T09:16:26;30.80;33.10
56478;DHT22;42382;53.210;5.772;2023-06-10T09:18:52;30.80;33.70
56478;DHT22;42382;53.210;5.772;2023-06-10T09:21:23;30.90;34.20
56478;DHT22;42382;53.210;5.772;2023-06-10T09:23:50;30.90;34.10
56478;DHT22;42382;53.210;5.772;2023-06-10T09:26:15;30.90;34.40
56478;DHT22;42382;53.210;5.772;2023-06-10T09:28:51;30.90;34.00
56478;DHT22;42382;53.210;5.772;2023-06-10T09:31:17;30.90;32.30
56478;DHT22;42382;53.210;5.772;2023-06-10T09:33:46;30.80;33.10
56478;DHT22;42382;53.210;5.772;2023-06-10T09:36:11;30.80;34.20
56478;DHT22;42382;53.210;5.772;2023-06-10T09:38:46;30.80;34.40
56478;DHT22;42382;53.210;5.772;2023-06-10T09:41:14;30.50;34.60
56478;DHT22;42382;53.210;5.772;2023-06-10T09:43:42;30.40;34.60
56478;DHT22;42382;53.210;5.772;2023-06-10T09:46:19;30.50;33.90
56478;DHT22;42382;53.210;5.772;2023-06-10T09:48:46;30.30;33.20
56478;DHT22;42382;53.210;5.772;2023-06-10T09:51:16;30.30;34.30
56478;DHT22;42382;53.210;5.772;2023-06-10T09:53:49;30.40;34.40
56478;DHT22;42382;53.210;5.772;2023-06-10T09:56:16;30.30;34.00
56478;DHT22;42382;53.210;5.772;2023-06-10T09:58:41;30.20;33.40
56478;DHT22;42382;53.210;5.772;2023-06-10T10:01:13;30.20;33.80
56478;DHT22;42382;53.210;5.772;2023-06-10T10:03:46;30.30;33.20
56478;DHT22;42382;53.210;5.772;2023-06-10T10:06:14;30.30;33.20
56478;DHT22;42382;53.210;5.772;2023-06-10T10:08:40;30.50;34.40
56478;DHT22;42382;53.210;5.772;2023-06-10T10:11:05;30.60;34.20
56478;DHT22;42382;53.210;5.772;2023-06-10T10:13:34;30.70;34.40
56478;DHT22;42382;53.210;5.772;2023-06-10T10:16:04;30.80;34.50
56478;DHT22;42382;53.210;5.772;2023-06-10T10:18:31;30.90;34.00
56478;DHT22;42382;53.210;5.772;2023-06-10T10:21:01;30.90;34.30
56478;DHT22;42382;53.210;5.772;2023-06-10T10:23:32;31.00;35.00
56478;DHT22;42382;53.210;5.772;2023-06-10T10:26:01;31.20;34.80
56478;DHT22;42382;53.210;5.772;2023-06-10T10:28:37;31.10;34.70
56478;DHT22;42382;53.210;5.772;2023-06-10T10:31:08;31.10;33.50
56478;DHT22;42382;53.210;5.772;2023-06-10T10:36:18;31.30;33.40
56478;DHT22;42382;53.210;5.772;2023-06-10T10:38:46;31.30;34.30
56478;DHT22;42382;53.210;5.772;2023-06-10T10:41:13;31.30;33.20
56478;DHT22;42382;53.210;5.772;2023-06-10T10:43:40;31.20;33.60
56478;DHT22;42382;53.210;5.772;2023-06-10T10:46:12;31.20;33.70
56478;DHT22;42382;53.210;5.772;2023-06-10T10:48:38;31.20;34.30
56478;DHT22;42382;53.210;5.772;2023-06-10T10:51:04;31.20;34.60
56478;DHT22;42382;53.210;5.772;2023-06-10T10:53:30;31.30;34.90
56478;DHT22;42382;53.210;5.772;2023-06-10T10:56:12;31.40;34.30
56478;DHT22;42382;53.210;5.772;2023-06-10T10:58:38;31.40;34.20
56478;DHT22;42382;53.210;5.772;2023-06-10T11:01:14;31.40;33.90
56478;DHT22;42382;53.210;5.772;2023-06-10T11:03:44;31.40;33.10
56478;DHT22;42382;53.210;5.772;2023-06-10T11:06:14;31.40;33.80
56478;DHT22;42382;53.210;5.772;2023-06-10T11:11:26;31.30;33.20
56478;DHT22;42382;53.210;5.772;2023-06-10T11:16:28;31.30;32.60
56478;DHT22;42382;53.210;5.772;2023-06-10T11:18:54;31.40;33.40
56478;DHT22;42382;53.210;5.772;2023-06-10T11:21:20;31.40;33.50
56478;DHT22;42382;53.210;5.772;2023-06-10T11:23:45;31.40;32.80
56478;DHT22;42382;53.210;5.772;2023-06-10T11:34:00;31.80;32.90
56478;DHT22;42382;53.210;5.772;2023-06-10T11:36:27;31.80;31.90
56478;DHT22;42382;53.210;5.772;2023-06-10T11:39:00;31.70;32.10
56478;DHT22;42382;53.210;5.772;2023-06-10T11:41:27;31.70;32.10
56478;DHT22;42382;53.210;5.772;2023-06-10T11:43:54;31.50;30.70
56478;DHT22;42382;53.210;5.772;2023-06-10T11:46:23;31.40;32.50
56478;DHT22;42382;53.210;5.772;2023-06-10T11:48:53;31.20;34.30
56478;DHT22;42382;53.210;5.772;2023-06-10T11:51:19;31.10;37.10
56478;DHT22;42382;53.210;5.772;2023-06-10T11:53:46;31.00;39.20
56478;DHT22;42382;53.210;5.772;2023-06-10T11:56:11;30.90;40.10
56478;DHT22;42382;53.210;5.772;2023-06-10T11:58:40;30.70;40.30
56478;DHT22;42382;53.210;5.772;2023-06-10T12:01:09;30.70;40.90
56478;DHT22;42382;53.210;5.772;2023-06-10T12:03:38;30.40;42.50
56478;DHT22;42382;53.210;5.772;2023-06-10T12:06:05;30.40;43.20
56478;DHT22;42382;53.210;5.772;2023-06-10T12:08:34;30.30;43.50
56478;DHT22;42382;53.210;5.772;2023-06-10T12:11:06;30.20;43.60
56478;DHT22;42382;53.210;5.772;2023-06-10T12:13:32;30.00;44.10
56478;DHT22;42382;53.210;5.772;2023-06-10T12:16:11;29.80;44.50
56478;DHT22;42382;53.210;5.772;2023-06-10T12:18:37;29.70;45.40
56478;DHT22;42382;53.210;5.772;2023-06-10T12:21:02;29.60;45.40
56478;DHT22;42382;53.210;5.772;2023-06-10T12:23:29;29.30;45.90
56478;DHT22;42382;53.210;5.772;2023-06-10T12:25:55;29.00;46.90
56478;DHT22;42382;53.210;5.772;2023-06-10T12:28:22;28.90;47.70
56478;DHT22;42382;53.210;5.772;2023-06-10T12:30:48;28.80;47.60
56478;DHT22;42382;53.210;5.772;2023-06-10T12:35:51;28.60;48.70
56478;DHT22;42382;53.210;5.772;2023-06-10T12:38:24;28.30;49.30
56478;DHT22;42382;53.210;5.772;2023-06-10T12:40:53;28.20;49.90
56478;DHT22;42382;53.210;5.772;2023-06-10T12:43:25;28.10;50.30
56478;DHT22;42382;53.210;5.772;2023-06-10T12:45:51;28.20;50.30
56478;DHT22;42382;53.210;5.772;2023-06-10T12:50:43;28.10;50.60
56478;DHT22;42382;53.210;5.772;2023-06-10T12:53:10;28.00;50.90
56478;DHT22;42382;53.210;5.772;2023-06-10T12:55:37;28.00;51.10
56478;DHT22;42382;53.210;5.772;2023-06-10T12:58:02;28.00;51.00
56478;DHT22;42382;53.210;5.772;2023-06-10T13:00:28;27.90;51.40
56478;DHT22;42382;53.210;5.772;2023-06-10T13:02:56;28.00;51.30
56478;DHT22;42382;53.210;5.772;2023-06-10T13:05:22;27.80;51.40
56478;DHT22;42382;53.210;5.772;2023-06-10T13:07:48;27.70;51.90
56478;DHT22;42382;53.210;5.772;2023-06-10T13:10:15;27.60;52.00
56478;DHT22;42382;53.210;5.772;2023-06-10T13:12:42;27.30;52.70
56478;DHT22;42382;53.210;5.772;2023-06-10T13:15:08;27.30;52.50
56478;DHT22;42382;53.210;5.772;2023-06-10T13:17:34;27.00;53.30
56478;DHT22;42382;53.210;5.772;2023-06-10T13:20:02;26.80;53.70
56478;DHT22;42382;53.210;5.772;2023-06-10T13:22:30;26.80;53.80
56478;DHT22;42382;53.210;5.772;2023-06-10T13:25:01;26.80;53.60
56478;DHT22;42382;53.210;5.772;2023-06-10T13:27:28;26.90;53.60
56478;DHT22;42382;53.210;5.772;2023-06-10T13:29:54;27.00;53.30
56478;DHT22;42382;53.210;5.772;2023-06-10T13:32:19;27.00;52.90
56478;DHT22;42382;53.210;5.772;2023-06-10T13:34:45;27.10;52.60
56478;DHT22;42382;53.210;5.772;2023-06-10T13:37:11;27.30;52.40
56478;DHT22;42382;53.210;5.772;2023-06-10T13:39:38;27.10;52.60
56478;DHT22;42382;53.210;5.772;2023-06-10T13:42:04;27.00;52.70
56478;DHT22;42382;53.210;5.772;2023-06-10T13:44:31;27.00;52.80
56478;DHT22;42382;53.210;5.772;2023-06-10T13:46:59;26.70;53.00
56478;DHT22;42382;53.210;5.772;2023-06-10T13:49:25;26.70;53.60
56478;DHT22;42382;53.210;5.772;2023-06-10T13:51:50;26.60;53.90
56478;DHT22;42382;53.210;5.772;2023-06-10T13:54:16;26.70;54.10
56478;DHT22;42382;53.210;5.772;2023-06-10T13:56:41;26.80;53.50
56478;DHT22;42382;53.210;5.772;2023-06-10T13:59:07;26.60;53.80
56478;DHT22;42382;53.210;5.772;2023-06-10T14:01:33;26.50;54.20
56478;DHT22;42382;53.210;5.772;2023-06-10T14:03:59;26.50;54.40
56478;DHT22;42382;53.210;5.772;2023-06-10T14:06:26;26.60;54.10
56478;DHT22;42382;53.210;5.772;2023-06-10T14:08:51;26.60;54.00
56478;DHT22;42382;53.210;5.772;2023-06-10T14:11:17;26.60;54.20
56478;DHT22;42382;53.210;5.772;2023-06-10T14:13:42;26.70;54.30
56478;DHT22;42382;53.210;5.772;2023-06-10T14:16:08;26.80;54.20
56478;DHT22;42382;53.210;5.772;2023-06-10T14:18:34;27.00;54.00
56478;DHT22;42382;53.210;5.772;2023-06-10T14:20:59;27.10;53.60
56478;DHT22;42382;53.210;5.772;2023-06-10T14:23:25;27.20;53.30
56478;DHT22;42382;53.210;5.772;2023-06-10T14:25:51;27.20;53.10
56478;DHT22;42382;53.210;5.772;2023-06-10T14:28:17;27.30;52.70
56478;DHT22;42382;53.210;5.772;2023-06-10T14:30:42;27.20;52.40
56478;DHT22;42382;53.210;5.772;2023-06-10T14:33:08;27.10;52.40
56478;DHT22;42382;53.210;5.772;2023-06-10T14:35:33;27.00;52.40
56478;DHT22;42382;53.210;5.772;2023-06-10T14:37:59;26.80;52.50
56478;DHT22;42382;53.210;5.772;2023-06-10T14:40:25;26.80;52.90
56478;DHT22;42382;53.210;5.772;2023-06-10T14:42:54;26.80;52.80
56478;DHT22;42382;53.210;5.772;2023-06-10T14:45:19;26.90;52.80
56478;DHT22;42382;53.210;5.772;2023-06-10T14:47:45;26.90;52.70
56478;DHT22;42382;53.210;5.772;2023-06-10T14:50:12;26.90;52.70
56478;DHT22;42382;53.210;5.772;2023-06-10T14:52:38;26.90;52.70
56478;DHT22;42382;53.210;5.772;2023-06-10T14:55:04;26.90;52.70
56478;DHT22;42382;53.210;5.772;2023-06-10T14:57:29;26.90;53.10
56478;DHT22;42382;53.210;5.772;2023-06-10T14:59:55;26.90;53.30
56478;DHT22;42382;53.210;5.772;2023-06-10T15:02:22;27.00;53.60
56478;DHT22;42382;53.210;5.772;2023-06-10T15:04:47;27.10;53.70
56478;DHT22;42382;53.210;5.772;2023-06-10T15:07:13;27.20;53.60
56478;DHT22;42382;53.210;5.772;2023-06-10T15:09:41;27.20;53.80
56478;DHT22;42382;53.210;5.772;2023-06-10T15:12:07;27.20;53.50
56478;DHT22;42382;53.210;5.772;2023-06-10T15:14:33;27.10;53.50
56478;DHT22;42382;53.210;5.772;2023-06-10T15:16:58;27.10;53.80
56478;DHT22;42382;53.210;5.772;2023-06-10T15:19:25;27.10;53.90
56478;DHT22;42382;53.210;5.772;2023-06-10T15:21:51;27.10;53.80
56478;DHT22;42382;53.210;5.772;2023-06-10T15:24:17;27.00;54.10
56478;DHT22;42382;53.210;5.772;2023-06-10T15:26:43;26.90;54.50
56478;DHT22;42382;53.210;5.772;2023-06-10T15:29:08;26.90;54.20
56478;DHT22;42382;53.210;5.772;2023-06-10T15:31:34;26.90;54.30
56478;DHT22;42382;53.210;5.772;2023-06-10T15:34:00;26.80;54.50
56478;DHT22;42382;53.210;5.772;2023-06-10T15:36:26;26.80;54.90
56478;DHT22;42382;53.210;5.772;2023-06-10T15:38:53;26.80;54.90
56478;DHT22;42382;53.210;5.772;2023-06-10T15:41:21;26.80;55.00
56478;DHT22;42382;53.210;5.772;2023-06-10T15:43:47;26.70;54.90
56478;DHT22;42382;53.210;5.772;2023-06-10T15:46:12;26.60;55.20
56478;DHT22;42382;53.210;5.772;2023-06-10T15:48:38;26.60;55.00
56478;DHT22;42382;53.210;5.772;2023-06-10T15:51:03;26.40;55.20
56478;DHT22;42382;53.210;5.772;2023-06-10T15:53:29;26.30;55.50
56478;DHT22;42382;53.210;5.772;2023-06-10T15:55:54;26.20;55.70
56478;DHT22;42382;53.210;5.772;2023-06-10T15:58:20;26.20;56.00
56478;DHT22;42382;53.210;5.772;2023-06-10T16:00:45;26.30;55.80
56478;DHT22;42382;53.210;5.772;2023-06-10T16:03:11;26.30;55.80
56478;DHT22;42382;53.210;5.772;2023-06-10T16:05:36;26.40;55.60